createdAt,value
2022-11-20T00:01:47.005Z,10.30
2022-11-20T00:06:49.794Z,10.63
2022-11-20T00:11:53.864Z,9.63
2022-11-20T00:16:56.628Z,10.75
2022-11-20T00:21:59.396Z,10.87
2022-11-20T00:27:03.455Z,10.25
2022-11-20T00:32:06.484Z,10.50
2022-11-20T00:37:09.199Z,11.10
2022-11-20T00:42:13.264Z,10.63
2022-11-20T00:47:16.116Z,12.70
2022-11-20T00:52:18.888Z,10.30
2022-11-20T00:57:22.963Z,11.77
2022-11-20T01:02:25.692Z,10.93
2022-11-20T01:07:28.437Z,11.10
2022-11-20T01:12:32.529Z,10.83
2022-11-20T01:17:35.305Z,10.38
2022-11-20T01:22:38.038Z,11.10
2022-11-20T01:27:42.096Z,11.13
2022-11-20T01:32:45.058Z,11.63
2022-11-20T01:37:47.792Z,12.00
2022-11-20T01:43:20.370Z,12.60
2022-11-20T01:48:25.894Z,14.87
2022-11-20T01:53:34.179Z,14.85
2022-11-20T01:58:44.403Z,17.48
2022-11-20T02:03:49.541Z,17.43
2022-11-20T02:08:54.020Z,19.02
2022-11-20T02:13:58.094Z,20.10
2022-11-20T02:19:02.716Z,21.10
2022-11-20T02:24:10.206Z,25.40
2022-11-20T02:29:12.959Z,28.27
2022-11-20T02:34:15.688Z,27.55
2022-11-20T02:39:22.639Z,25.10
2022-11-20T02:44:25.659Z,24.95
2022-11-20T02:49:28.372Z,24.58
2022-11-20T02:54:32.461Z,27.57
2022-11-20T02:59:35.158Z,25.70
2022-11-20T03:04:37.887Z,27.58
2022-11-20T03:09:41.979Z,25.70
2022-11-20T03:14:47.763Z,25.13
2022-11-20T03:19:53.048Z,22.33
2022-11-20T03:24:57.099Z,21.10
2022-11-20T03:29:59.805Z,18.53
2022-11-20T03:35:02.879Z,17.70
2022-11-20T03:40:08.866Z,14.90
2022-11-20T03:45:11.848Z,14.00
2022-11-20T03:50:15.808Z,11.50
2022-11-20T03:55:19.932Z,10.18
2022-11-20T04:00:22.739Z,10.53
2022-11-20T04:05:25.503Z,8.93
2022-11-20T04:10:29.547Z,9.50
2022-11-20T04:15:38.136Z,8.95
2022-11-20T04:20:41.127Z,11.43
2022-11-20T04:25:45.284Z,11.90
2022-11-20T04:30:48.435Z,11.68
2022-11-20T04:35:51.152Z,10.50
2022-11-20T04:40:58.467Z,9.35
2022-11-20T04:46:02.280Z,10.45
2022-11-20T04:51:05.924Z,9.70
2022-11-20T04:56:11.956Z,8.03
2022-11-20T05:01:17.080Z,9.48
2022-11-20T05:06:22.920Z,8.43
2022-11-20T05:11:29.971Z,8.17
2022-11-20T05:16:32.859Z,8.40
2022-11-20T05:21:35.594Z,10.52
2022-11-20T05:26:39.944Z,8.00
2022-11-20T05:31:43.015Z,8.88
2022-11-20T05:36:45.765Z,7.85
2022-11-20T05:42:10.619Z,8.43
2022-11-20T05:47:13.339Z,8.33
2022-11-20T05:52:16.174Z,9.15
2022-11-20T05:57:20.223Z,8.38
2022-11-20T06:02:22.988Z,8.27
2022-11-20T06:07:26.227Z,8.82
2022-11-20T06:12:30.527Z,9.32
2022-11-20T06:17:33.291Z,8.97
2022-11-20T06:22:36.010Z,9.27
2022-11-20T06:27:40.103Z,9.40
2022-11-20T06:32:42.975Z,8.30
2022-11-20T06:37:45.701Z,11.60
2022-11-20T06:42:49.821Z,9.88
2022-11-20T06:47:52.770Z,9.02
2022-11-20T06:52:55.537Z,8.20
2022-11-20T06:57:59.846Z,9.77
2022-11-20T07:03:05.187Z,8.60
2022-11-20T07:08:08.383Z,9.43
2022-11-20T07:13:12.803Z,9.68
2022-11-20T07:18:15.523Z,9.30
2022-11-20T07:23:18.249Z,9.97
2022-11-20T07:28:22.434Z,10.13
2022-11-20T07:33:25.574Z,11.07
2022-11-20T07:38:28.324Z,10.98
2022-11-20T07:43:35.921Z,10.70
2022-11-20T07:48:42.816Z,10.98
2022-11-20T07:53:45.528Z,9.40
2022-11-20T07:58:49.609Z,9.67
2022-11-20T08:03:52.485Z,8.75
2022-11-20T08:08:55.229Z,9.20
2022-11-20T08:14:14.651Z,8.90
2022-11-20T08:19:20.153Z,8.27
2022-11-20T08:24:23.269Z,9.00
2022-11-20T08:29:28.114Z,8.65
2022-11-20T08:34:30.868Z,8.13
2022-11-20T08:39:33.596Z,16.80
2022-11-20T08:44:37.655Z,12.75
2022-11-20T08:49:40.382Z,8.80
2022-11-20T08:54:43.090Z,10.35
2022-11-20T09:05:10.106Z,8.10
2022-11-20T09:10:28.399Z,8.47
2022-11-20T09:15:32.556Z,8.30
2022-11-20T09:20:35.309Z,8.98
2022-11-20T09:25:38.100Z,7.27
2022-11-20T09:30:42.274Z,7.95
2022-11-20T09:35:45.610Z,8.80
2022-11-20T09:40:56.337Z,8.87
2022-11-20T09:46:10.641Z,8.85
2022-11-20T09:51:25.610Z,7.82
2022-11-20T09:56:30.239Z,8.07
2022-11-20T10:01:39.296Z,8.80
2022-11-20T10:06:59.506Z,8.05
2022-11-20T10:12:19.311Z,7.95
2022-11-20T10:17:36.042Z,8.50
2022-11-20T10:22:55.964Z,9.65
2022-11-20T10:28:17.869Z,8.38
2022-11-20T10:33:24.889Z,7.60
2022-11-20T10:38:35.977Z,7.13
2022-11-20T10:43:38.726Z,7.18
2022-11-20T10:48:46.105Z,8.37
2022-11-20T10:53:58.701Z,6.67
2022-11-20T10:59:44.137Z,7.32
2022-11-20T11:04:51.364Z,6.60
2022-11-20T11:09:55.870Z,7.07
2022-11-20T11:14:59.922Z,6.50
2022-11-20T11:20:07.723Z,7.22
2022-11-20T11:25:20.626Z,6.83
2022-11-20T11:30:25.241Z,6.93
2022-11-20T11:35:30.570Z,7.28
2022-11-20T11:40:34.713Z,6.37
2022-11-20T11:45:38.449Z,6.40
2022-11-20T11:50:50.997Z,7.53
2022-11-20T11:56:00.132Z,8.20
2022-11-20T12:01:09.934Z,8.27
2022-11-20T12:06:16.899Z,8.18
2022-11-20T12:11:26.240Z,7.72
2022-11-20T12:16:29.321Z,8.57
2022-11-20T12:21:46.253Z,7.82
2022-11-20T12:27:03.912Z,7.72
2022-11-20T12:32:33.553Z,10.30
2022-11-20T12:37:49.919Z,8.47
2022-11-20T12:43:21.111Z,10.32
2022-11-20T12:48:46.405Z,10.38
2022-11-20T12:54:08.326Z,9.93
2022-11-20T12:59:30.037Z,9.88
2022-11-20T13:04:46.771Z,10.60
2022-11-20T13:09:52.569Z,10.57
2022-11-20T13:15:04.832Z,9.80
2022-11-20T13:20:14.281Z,10.18
2022-11-20T13:25:29.538Z,9.40
2022-11-20T13:30:33.544Z,9.10
2022-11-20T13:35:38.340Z,8.52
2022-11-20T13:40:53.658Z,8.70
2022-11-20T13:45:58.633Z,8.77
2022-11-20T13:51:11.820Z,7.93
2022-11-20T13:56:26.095Z,8.15
2022-11-20T14:01:33.521Z,9.07
2022-11-20T14:06:42.656Z,7.68
2022-11-20T14:11:49.786Z,7.57
2022-11-20T14:16:53.302Z,7.13
2022-11-20T14:22:08.548Z,8.33
2022-11-20T14:27:18.477Z,7.90
2022-11-20T14:32:30.612Z,8.38
2022-11-20T14:37:38.325Z,8.77
2022-11-20T14:42:46.122Z,7.82
2022-11-20T14:47:50.119Z,7.88
2022-11-20T14:52:54.292Z,8.30
2022-11-20T14:58:00.157Z,8.82
2022-11-20T15:03:03.333Z,9.43
2022-11-20T15:08:08.824Z,8.77
2022-11-20T15:13:18.136Z,9.43
2022-11-20T15:18:23.425Z,10.85
2022-11-20T15:23:28.325Z,9.77
2022-11-20T15:28:35.400Z,12.03
2022-11-20T15:33:38.152Z,9.88
2022-11-20T15:38:40.944Z,9.43
2022-11-20T15:43:45.060Z,9.73
2022-11-20T15:48:52.819Z,10.05
2022-11-20T15:53:57.246Z,10.77
2022-11-20T16:04:14.027Z,15.47
2022-11-20T16:09:16.751Z,12.52
2022-11-20T16:14:36.943Z,11.27
2022-11-20T16:19:41.044Z,11.63
2022-11-20T16:24:43.800Z,10.90
2022-11-20T16:29:46.565Z,14.10
2022-11-20T16:34:51.862Z,15.87
2022-11-20T16:39:54.808Z,18.70
2022-11-20T16:44:57.612Z,14.90
2022-11-20T16:50:01.809Z,9.77
2022-11-20T16:55:05.250Z,9.30
2022-11-20T17:00:09.269Z,8.00
2022-11-20T17:05:13.343Z,8.63
2022-11-20T17:10:16.282Z,8.30
2022-11-20T17:15:19.281Z,8.88
2022-11-20T17:20:23.513Z,9.05
2022-11-20T17:25:26.248Z,10.30
2022-11-20T17:30:28.970Z,12.43
2022-11-20T17:35:33.162Z,9.77
2022-11-20T17:40:35.916Z,10.17
2022-11-20T17:45:38.854Z,10.53
2022-11-20T17:50:43.017Z,13.07
2022-11-20T17:56:03.283Z,10.20
2022-11-20T18:01:06.808Z,12.83
2022-11-20T18:06:12.599Z,11.68
2022-11-20T18:11:16.995Z,13.27
2022-11-20T18:16:19.743Z,13.27
2022-11-20T18:21:24.556Z,13.80
2022-11-20T18:26:27.659Z,14.32
2022-11-20T18:31:30.421Z,17.00
2022-11-20T18:36:34.631Z,18.70
2022-11-20T18:41:55.197Z,20.27
2022-11-20T18:46:58.066Z,20.15
2022-11-20T18:52:02.133Z,18.90
2022-11-20T18:57:05.269Z,19.58
2022-11-20T19:02:10.806Z,16.73
2022-11-20T19:07:15.829Z,18.27
2022-11-20T19:12:19.110Z,14.52
2022-11-20T19:17:21.861Z,15.20
2022-11-20T19:22:26.004Z,16.70
2022-11-20T19:27:28.961Z,16.57
2022-11-20T19:32:32.484Z,16.73
2022-11-20T19:37:37.058Z,13.65
2022-11-20T19:42:40.270Z,16.13
2022-11-20T19:48:06.638Z,17.40
2022-11-20T19:53:07.464Z,15.25
2022-11-20T19:58:10.297Z,15.83
2022-11-20T20:03:13.154Z,17.92
2022-11-20T20:08:17.309Z,16.65
2022-11-20T20:13:20.075Z,16.40
2022-11-20T20:18:22.796Z,18.50
2022-11-20T20:23:26.859Z,16.58
2022-11-20T20:28:30.027Z,17.23
2022-11-20T20:33:32.843Z,15.40
2022-11-20T20:38:37.498Z,16.33
2022-11-20T20:43:54.129Z,15.20
2022-11-20T20:48:56.898Z,16.73
2022-11-20T20:54:00.990Z,15.82
2022-11-20T20:59:04.371Z,16.08
2022-11-20T21:04:07.093Z,17.60
2022-11-20T21:09:11.376Z,14.93
2022-11-20T21:14:14.126Z,16.33
2022-11-20T21:19:16.913Z,14.52
2022-11-20T21:24:21.289Z,14.70
2022-11-20T21:29:25.520Z,14.93
2022-11-20T21:34:28.896Z,14.50
2022-11-20T21:39:32.965Z,15.73
2022-11-20T21:44:35.664Z,14.68
2022-11-20T21:49:39.834Z,14.70
2022-11-20T21:54:43.907Z,14.47
2022-11-20T21:59:46.642Z,14.80
2022-11-20T22:04:50.052Z,16.23
2022-11-20T22:09:54.103Z,16.50
2022-11-20T22:14:56.817Z,15.60
2022-11-20T22:19:59.548Z,20.67
2022-11-20T22:25:03.665Z,40.85
2022-11-20T22:30:07.468Z,22.57
2022-11-20T22:35:10.590Z,49.45
2022-11-20T22:40:15.004Z,23.65
2022-11-20T22:45:18.049Z,26.43
2022-11-20T22:50:20.787Z,28.10
2022-11-20T22:55:24.884Z,27.25
2022-11-20T23:00:27.580Z,24.15
2022-11-20T23:05:33.000Z,29.80
2022-11-20T23:10:37.063Z,47.85
2022-11-20T23:15:39.785Z,30.08
2022-11-20T23:20:42.508Z,41.23
2022-11-20T23:25:46.655Z,28.88
2022-11-20T23:30:49.387Z,45.20
2022-11-20T23:35:52.280Z,36.90
2022-11-20T23:40:56.364Z,29.63
2022-11-20T23:46:00.673Z,28.77
2022-11-20T23:51:04.133Z,27.73
2022-11-20T23:56:09.127Z,28.23
